Terminal Aerodrome Forecast
Issued by NWS

Home | Current Version | Previous Version | Text Only | Print | Product List | Glossary On
Versions: 1 2 3 4 5 6 7 8 9 10 11 12 13 14 15 16 17 18 19 20 21 22 23 24 25 26 27 28 29 30
000
FTUS44 KLZK 172306 AAA
TAFLIT
TAF AMD
KLIT 172306Z 1723/1818 19010G18KT P6SM OVC060 WS020/21040KT
     FM180800 21012G20KT P6SM BKN020 OVC050 WS020/22040KT
     FM181500 23014G24KT P6SM VCSH SCT030 OVC060=

USA.gov is the U.S. government's official web portal to all federal, state and local government web resources and services.